Katav-Ivanovsk, Russia
Current Conditions -  °F | °C
As of 3:30 PM on Friday 31 Oct 2014 (Local Time) from UWUU Reporting Station
Light Rain Light Rain  
Wind Chill: 37°   Ceiling: 4000
Heat Index: 43°   Visibility: 6mi
Dew Point: 37°   Wind: 11mph
Humidity: 81%   Direction: 200°SSW
Pressure: 30.15"   Gusts: 18mph
Location:  54.75°N, 58.2°E
Report Text: UWUU 310930Z 20005G08MPS 9999 -RA OVC040 06/03 Q1021 64210150NOSIG RMK QFE755/1007 MOD ICE 3000-5000
Loading
Personal Weather Stations






























Interactive Weather Map
Tropical Storm Tracking
New forecast layout! Learn more

10-Day Weather Forecast

Advertisements
Track Severe Weather on mobile